sensor_id;sensor_type;location;lat;lon;timestamp;temperature;humidity
8676;DHT22;4375;52.486;13.424;2022-11-25T00:01:31;5.00;99.90
8676;DHT22;4375;52.486;13.424;2022-11-25T00:03:58;4.90;99.90
8676;DHT22;4375;52.486;13.424;2022-11-25T00:06:32;4.80;99.90
8676;DHT22;4375;52.486;13.424;2022-11-25T00:09:00;4.80;99.90
8676;DHT22;4375;52.486;13.424;2022-11-25T00:11:27;4.80;99.90
8676;DHT22;4375;52.486;13.424;2022-11-25T00:13:54;4.80;99.90
8676;DHT22;4375;52.486;13.424;2022-11-25T00:16:21;4.80;99.90
8676;DHT22;4375;52.486;13.424;2022-11-25T00:18:49;5.00;99.90
8676;DHT22;4375;52.486;13.424;2022-11-25T00:21:20;5.00;99.90
8676;DHT22;4375;52.486;13.424;2022-11-25T00:23:55;4.90;99.90
8676;DHT22;4375;52.486;13.424;2022-11-25T00:26:22;4.80;99.90
8676;DHT22;4375;52.486;13.424;2022-11-25T00:28:49;4.80;99.90
8676;DHT22;4375;52.486;13.424;2022-11-25T00:31:23;4.80;99.90
8676;DHT22;4375;52.486;13.424;2022-11-25T00:33:49;4.80;99.90
8676;DHT22;4375;52.486;13.424;2022-11-25T00:36:16;4.90;99.90
8676;DHT22;4375;52.486;13.424;2022-11-25T00:38:43;4.90;99.90
8676;DHT22;4375;52.486;13.424;2022-11-25T00:41:09;4.90;99.90
8676;DHT22;4375;52.486;13.424;2022-11-25T00:43:54;5.00;99.90
8676;DHT22;4375;52.486;13.424;2022-11-25T00:46:40;5.00;99.90
8676;DHT22;4375;52.486;13.424;2022-11-25T00:49:06;4.90;99.90
8676;DHT22;4375;52.486;13.424;2022-11-25T00:51:32;4.90;99.90
8676;DHT22;4375;52.486;13.424;2022-11-25T00:53:57;4.90;99.90
8676;DHT22;4375;52.486;13.424;2022-11-25T00:56:23;4.90;99.90
8676;DHT22;4375;52.486;13.424;2022-11-25T00:58:49;4.80;99.90
8676;DHT22;4375;52.486;13.424;2022-11-25T01:01:14;5.00;99.90
8676;DHT22;4375;52.486;13.424;2022-11-25T01:03:40;5.00;99.90
8676;DHT22;4375;52.486;13.424;2022-11-25T01:06:08;4.90;99.90
8676;DHT22;4375;52.486;13.424;2022-11-25T01:08:35;5.00;99.90
8676;DHT22;4375;52.486;13.424;2022-11-25T01:11:04;5.00;99.90
8676;DHT22;4375;52.486;13.424;2022-11-25T01:13:31;4.90;99.90
8676;DHT22;4375;52.486;13.424;2022-11-25T01:15:59;5.00;99.90
8676;DHT22;4375;52.486;13.424;2022-11-25T01:18:25;5.00;99.90
8676;DHT22;4375;52.486;13.424;2022-11-25T01:20:51;5.00;99.90
8676;DHT22;4375;52.486;13.424;2022-11-25T01:23:17;5.00;99.90
8676;DHT22;4375;52.486;13.424;2022-11-25T01:25:43;5.00;99.90
8676;DHT22;4375;52.486;13.424;2022-11-25T01:28:08;5.00;99.90
8676;DHT22;4375;52.486;13.424;2022-11-25T01:30:34;5.00;99.90
8676;DHT22;4375;52.486;13.424;2022-11-25T01:32:59;5.00;99.90
8676;DHT22;4375;52.486;13.424;2022-11-25T01:35:25;5.00;99.90
8676;DHT22;4375;52.486;13.424;2022-11-25T01:37:51;5.00;99.90
8676;DHT22;4375;52.486;13.424;2022-11-25T01:40:16;5.00;99.90
8676;DHT22;4375;52.486;13.424;2022-11-25T01:42:47;5.00;99.90
8676;DHT22;4375;52.486;13.424;2022-11-25T01:45:32;5.00;99.90
8676;DHT22;4375;52.486;13.424;2022-11-25T01:48:04;5.10;99.90
8676;DHT22;4375;52.486;13.424;2022-11-25T01:50:31;5.10;99.90
8676;DHT22;4375;52.486;13.424;2022-11-25T01:52:59;5.10;99.90
8676;DHT22;4375;52.486;13.424;2022-11-25T01:55:30;5.10;99.90
8676;DHT22;4375;52.486;13.424;2022-11-25T01:58:09;5.10;99.90
8676;DHT22;4375;52.486;13.424;2022-11-25T02:00:36;5.00;99.90
8676;DHT22;4375;52.486;13.424;2022-11-25T02:03:03;5.00;99.90
8676;DHT22;4375;52.486;13.424;2022-11-25T02:05:40;5.00;99.90
8676;DHT22;4375;52.486;13.424;2022-11-25T02:08:09;5.10;99.90
8676;DHT22;4375;52.486;13.424;2022-11-25T02:10:37;5.10;99.90
8676;DHT22;4375;52.486;13.424;2022-11-25T02:13:03;5.10;99.90
8676;DHT22;4375;52.486;13.424;2022-11-25T02:15:30;5.20;99.90
8676;DHT22;4375;52.486;13.424;2022-11-25T02:17:57;5.20;99.90
8676;DHT22;4375;52.486;13.424;2022-11-25T02:20:24;5.10;99.90
8676;DHT22;4375;52.486;13.424;2022-11-25T02:25:37;5.20;99.90
8676;DHT22;4375;52.486;13.424;2022-11-25T02:30:32;5.10;99.90
8676;DHT22;4375;52.486;13.424;2022-11-25T02:32:59;5.10;99.90
8676;DHT22;4375;52.486;13.424;2022-11-25T02:36:03;5.10;99.90
8676;DHT22;4375;52.486;13.424;2022-11-25T02:41:15;5.10;99.90
8676;DHT22;4375;52.486;13.424;2022-11-25T02:43:42;5.10;99.90
8676;DHT22;4375;52.486;13.424;2022-11-25T02:46:10;5.00;99.90
8676;DHT22;4375;52.486;13.424;2022-11-25T02:48:38;5.00;99.90
8676;DHT22;4375;52.486;13.424;2022-11-25T02:51:07;5.00;99.90
8676;DHT22;4375;52.486;13.424;2022-11-25T02:53:33;5.00;99.90
8676;DHT22;4375;52.486;13.424;2022-11-25T02:55:59;5.00;99.90
8676;DHT22;4375;52.486;13.424;2022-11-25T02:58:24;5.00;99.90
8676;DHT22;4375;52.486;13.424;2022-11-25T03:00:50;5.10;99.90
8676;DHT22;4375;52.486;13.424;2022-11-25T03:03:16;5.00;99.90
8676;DHT22;4375;52.486;13.424;2022-11-25T03:05:42;5.00;99.90
8676;DHT22;4375;52.486;13.424;2022-11-25T03:08:08;5.10;99.90
8676;DHT22;4375;52.486;13.424;2022-11-25T03:10:35;5.10;99.90
8676;DHT22;4375;52.486;13.424;2022-11-25T03:13:00;5.10;99.90
8676;DHT22;4375;52.486;13.424;2022-11-25T03:15:26;5.10;99.90
8676;DHT22;4375;52.486;13.424;2022-11-25T03:17:52;5.10;99.90
8676;DHT22;4375;52.486;13.424;2022-11-25T03:20:19;5.10;99.90
8676;DHT22;4375;52.486;13.424;2022-11-25T03:22:45;5.20;99.90
8676;DHT22;4375;52.486;13.424;2022-11-25T03:25:11;5.20;99.90
8676;DHT22;4375;52.486;13.424;2022-11-25T03:27:39;5.30;99.90
8676;DHT22;4375;52.486;13.424;2022-11-25T03:30:07;5.20;99.90
8676;DHT22;4375;52.486;13.424;2022-11-25T03:32:33;5.20;99.90
8676;DHT22;4375;52.486;13.424;2022-11-25T03:34:59;5.10;99.90
8676;DHT22;4375;52.486;13.424;2022-11-25T03:37:25;5.10;99.90
8676;DHT22;4375;52.486;13.424;2022-11-25T03:39:50;5.10;99.90
8676;DHT22;4375;52.486;13.424;2022-11-25T03:42:16;5.10;99.90
8676;DHT22;4375;52.486;13.424;2022-11-25T03:44:42;5.10;99.90
8676;DHT22;4375;52.486;13.424;2022-11-25T03:47:07;5.10;99.90
8676;DHT22;4375;52.486;13.424;2022-11-25T03:49:33;5.10;99.90
8676;DHT22;4375;52.486;13.424;2022-11-25T03:51:59;5.10;99.90
8676;DHT22;4375;52.486;13.424;2022-11-25T03:54:25;5.10;99.90
8676;DHT22;4375;52.486;13.424;2022-11-25T03:56:51;5.10;99.90
8676;DHT22;4375;52.486;13.424;2022-11-25T03:59:16;5.00;99.90
8676;DHT22;4375;52.486;13.424;2022-11-25T04:01:42;5.10;99.90
8676;DHT22;4375;52.486;13.424;2022-11-25T04:04:08;5.10;99.90
8676;DHT22;4375;52.486;13.424;2022-11-25T04:06:33;5.20;99.90
8676;DHT22;4375;52.486;13.424;2022-11-25T04:08:59;5.10;99.90
8676;DHT22;4375;52.486;13.424;2022-11-25T04:11:25;5.10;99.90
8676;DHT22;4375;52.486;13.424;2022-11-25T04:14:13;5.10;99.90
8676;DHT22;4375;52.486;13.424;2022-11-25T04:16:39;5.20;99.90
8676;DHT22;4375;52.486;13.424;2022-11-25T04:19:04;5.20;99.90
8676;DHT22;4375;52.486;13.424;2022-11-25T04:21:30;5.40;99.90
8676;DHT22;4375;52.486;13.424;2022-11-25T04:23:56;5.40;99.90
8676;DHT22;4375;52.486;13.424;2022-11-25T04:26:21;5.40;99.90
8676;DHT22;4375;52.486;13.424;2022-11-25T04:28:47;5.30;99.90
8676;DHT22;4375;52.486;13.424;2022-11-25T04:31:13;5.30;99.90
8676;DHT22;4375;52.486;13.424;2022-11-25T04:33:39;5.20;99.90
8676;DHT22;4375;52.486;13.424;2022-11-25T04:36:04;5.20;99.90
8676;DHT22;4375;52.486;13.424;2022-11-25T04:38:30;5.20;99.90
8676;DHT22;4375;52.486;13.424;2022-11-25T04:40:56;5.30;99.90
8676;DHT22;4375;52.486;13.424;2022-11-25T04:43:21;5.20;99.90
8676;DHT22;4375;52.486;13.424;2022-11-25T04:45:48;5.30;99.90
8676;DHT22;4375;52.486;13.424;2022-11-25T04:48:14;5.30;99.90
8676;DHT22;4375;52.486;13.424;2022-11-25T04:50:39;5.40;99.90
8676;DHT22;4375;52.486;13.424;2022-11-25T04:53:05;5.30;99.90
8676;DHT22;4375;52.486;13.424;2022-11-25T04:55:30;5.30;99.90
8676;DHT22;4375;52.486;13.424;2022-11-25T04:57:56;5.40;99.90
8676;DHT22;4375;52.486;13.424;2022-11-25T05:00:22;5.30;99.90
8676;DHT22;4375;52.486;13.424;2022-11-25T05:02:48;5.30;99.90
8676;DHT22;4375;52.486;13.424;2022-11-25T05:05:14;5.30;99.90
8676;DHT22;4375;52.486;13.424;2022-11-25T05:07:40;5.30;99.90
8676;DHT22;4375;52.486;13.424;2022-11-25T05:10:06;5.40;99.90
8676;DHT22;4375;52.486;13.424;2022-11-25T05:12:32;5.40;99.90
8676;DHT22;4375;52.486;13.424;2022-11-25T05:14:57;5.40;99.90
8676;DHT22;4375;52.486;13.424;2022-11-25T05:17:25;5.50;99.90
8676;DHT22;4375;52.486;13.424;2022-11-25T05:19:51;5.50;99.90
8676;DHT22;4375;52.486;13.424;2022-11-25T05:22:19;5.50;99.90
8676;DHT22;4375;52.486;13.424;2022-11-25T05:24:46;5.50;99.90
8676;DHT22;4375;52.486;13.424;2022-11-25T05:27:12;5.50;99.90
8676;DHT22;4375;52.486;13.424;2022-11-25T05:29:37;5.50;99.90
8676;DHT22;4375;52.486;13.424;2022-11-25T05:32:04;5.50;99.90
8676;DHT22;4375;52.486;13.424;2022-11-25T05:34:30;5.40;99.90
8676;DHT22;4375;52.486;13.424;2022-11-25T05:36:56;5.40;99.90
8676;DHT22;4375;52.486;13.424;2022-11-25T05:39:22;5.40;99.90
8676;DHT22;4375;52.486;13.424;2022-11-25T05:41:48;5.40;99.90
8676;DHT22;4375;52.486;13.424;2022-11-25T05:44:14;5.50;99.90
8676;DHT22;4375;52.486;13.424;2022-11-25T05:46:40;5.40;99.90
8676;DHT22;4375;52.486;13.424;2022-11-25T05:49:05;5.40;99.90
8676;DHT22;4375;52.486;13.424;2022-11-25T05:51:31;5.50;99.90
8676;DHT22;4375;52.486;13.424;2022-11-25T05:53:57;5.40;99.90
8676;DHT22;4375;52.486;13.424;2022-11-25T05:56:23;5.30;99.90
8676;DHT22;4375;52.486;13.424;2022-11-25T05:58:49;5.40;99.90
8676;DHT22;4375;52.486;13.424;2022-11-25T06:01:15;5.40;99.90
8676;DHT22;4375;52.486;13.424;2022-11-25T06:03:42;5.40;99.90
8676;DHT22;4375;52.486;13.424;2022-11-25T06:06:08;5.30;99.90
8676;DHT22;4375;52.486;13.424;2022-11-25T06:08:35;5.40;99.90
8676;DHT22;4375;52.486;13.424;2022-11-25T06:11:11;5.40;99.90
8676;DHT22;4375;52.486;13.424;2022-11-25T06:13:37;5.40;99.90
8676;DHT22;4375;52.486;13.424;2022-11-25T06:16:22;5.40;99.90
8676;DHT22;4375;52.486;13.424;2022-11-25T06:18:48;5.40;99.90
8676;DHT22;4375;52.486;13.424;2022-11-25T06:21:15;5.40;99.90
8676;DHT22;4375;52.486;13.424;2022-11-25T06:23:41;5.50;99.90
8676;DHT22;4375;52.486;13.424;2022-11-25T06:26:17;5.40;99.90
8676;DHT22;4375;52.486;13.424;2022-11-25T06:28:44;5.40;99.90
8676;DHT22;4375;52.486;13.424;2022-11-25T06:31:21;5.20;99.90
8676;DHT22;4375;52.486;13.424;2022-11-25T06:33:49;5.20;99.90
8676;DHT22;4375;52.486;13.424;2022-11-25T06:36:16;5.10;99.90
8676;DHT22;4375;52.486;13.424;2022-11-25T06:38:52;5.10;99.90
8676;DHT22;4375;52.486;13.424;2022-11-25T06:41:18;5.10;99.90
8676;DHT22;4375;52.486;13.424;2022-11-25T06:43:44;4.90;99.90
8676;DHT22;4375;52.486;13.424;2022-11-25T06:46:13;5.00;99.90
8676;DHT22;4375;52.486;13.424;2022-11-25T06:48:39;4.90;99.90
8676;DHT22;4375;52.486;13.424;2022-11-25T06:51:07;4.90;99.90
8676;DHT22;4375;52.486;13.424;2022-11-25T06:53:34;4.80;99.90
8676;DHT22;4375;52.486;13.424;2022-11-25T06:58:29;4.80;99.90
8676;DHT22;4375;52.486;13.424;2022-11-25T07:01:02;4.80;99.90
8676;DHT22;4375;52.486;13.424;2022-11-25T07:03:28;4.70;99.90
8676;DHT22;4375;52.486;13.424;2022-11-25T07:05:58;4.80;99.90
8676;DHT22;4375;52.486;13.424;2022-11-25T07:08:27;4.80;99.90
8676;DHT22;4375;52.486;13.424;2022-11-25T07:10:53;4.80;99.90
8676;DHT22;4375;52.486;13.424;2022-11-25T07:13:20;4.90;99.90
8676;DHT22;4375;52.486;13.424;2022-11-25T07:15:46;4.90;99.90
8676;DHT22;4375;52.486;13.424;2022-11-25T07:18:12;4.90;99.90
8676;DHT22;4375;52.486;13.424;2022-11-25T07:20:38;4.90;99.90
8676;DHT22;4375;52.486;13.424;2022-11-25T07:23:04;4.90;99.90
8676;DHT22;4375;52.486;13.424;2022-11-25T07:25:31;5.00;99.90
8676;DHT22;4375;52.486;13.424;2022-11-25T07:27:57;4.90;99.90
8676;DHT22;4375;52.486;13.424;2022-11-25T07:30:24;4.90;99.90
8676;DHT22;4375;52.486;13.424;2022-11-25T07:32:49;4.90;99.90
8676;DHT22;4375;52.486;13.424;2022-11-25T07:35:15;5.00;99.90
8676;DHT22;4375;52.486;13.424;2022-11-25T07:37:41;4.90;99.90
8676;DHT22;4375;52.486;13.424;2022-11-25T07:40:07;5.00;99.90
8676;DHT22;4375;52.486;13.424;2022-11-25T07:42:33;5.00;99.90
8676;DHT22;4375;52.486;13.424;2022-11-25T07:44:58;5.00;99.90
8676;DHT22;4375;52.486;13.424;2022-11-25T07:47:24;5.00;99.90
8676;DHT22;4375;52.486;13.424;2022-11-25T07:49:50;5.00;99.90
8676;DHT22;4375;52.486;13.424;2022-11-25T07:52:16;5.10;99.90
8676;DHT22;4375;52.486;13.424;2022-11-25T07:54:41;5.10;99.90
8676;DHT22;4375;52.486;13.424;2022-11-25T07:57:07;5.10;99.90
8676;DHT22;4375;52.486;13.424;2022-11-25T07:59:33;5.10;99.90
8676;DHT22;4375;52.486;13.424;2022-11-25T08:01:58;5.10;99.90
8676;DHT22;4375;52.486;13.424;2022-11-25T08:04:24;5.10;99.90
8676;DHT22;4375;52.486;13.424;2022-11-25T08:06:51;5.10;99.90
8676;DHT22;4375;52.486;13.424;2022-11-25T08:09:19;5.20;99.90
8676;DHT22;4375;52.486;13.424;2022-11-25T08:11:46;5.20;99.90
8676;DHT22;4375;52.486;13.424;2022-11-25T08:14:12;5.30;99.90
8676;DHT22;4375;52.486;13.424;2022-11-25T08:16:38;5.20;99.90
8676;DHT22;4375;52.486;13.424;2022-11-25T08:19:07;5.10;99.90
8676;DHT22;4375;52.486;13.424;2022-11-25T08:21:34;5.30;99.90
8676;DHT22;4375;52.486;13.424;2022-11-25T08:24:00;5.30;99.90
8676;DHT22;4375;52.486;13.424;2022-11-25T08:26:30;5.40;99.90
8676;DHT22;4375;52.486;13.424;2022-11-25T08:28:58;5.30;99.90
8676;DHT22;4375;52.486;13.424;2022-11-25T08:31:30;5.50;99.90
8676;DHT22;4375;52.486;13.424;2022-11-25T08:33:56;5.50;99.90
8676;DHT22;4375;52.486;13.424;2022-11-25T08:36:22;5.50;99.90
8676;DHT22;4375;52.486;13.424;2022-11-25T08:38:50;5.60;99.90
8676;DHT22;4375;52.486;13.424;2022-11-25T08:41:19;5.40;99.90
8676;DHT22;4375;52.486;13.424;2022-11-25T08:43:46;5.50;99.90
8676;DHT22;4375;52.486;13.424;2022-11-25T08:46:22;5.40;99.90
8676;DHT22;4375;52.486;13.424;2022-11-25T08:48:47;5.40;99.90
8676;DHT22;4375;52.486;13.424;2022-11-25T08:51:16;5.40;99.90
8676;DHT22;4375;52.486;13.424;2022-11-25T08:53:43;5.60;99.90
8676;DHT22;4375;52.486;13.424;2022-11-25T08:56:10;5.50;99.90
8676;DHT22;4375;52.486;13.424;2022-11-25T08:58:36;5.60;99.90
8676;DHT22;4375;52.486;13.424;2022-11-25T09:01:03;5.70;99.90
8676;DHT22;4375;52.486;13.424;2022-11-25T09:03:35;5.70;99.90
8676;DHT22;4375;52.486;13.424;2022-11-25T09:06:02;5.60;99.90
8676;DHT22;4375;52.486;13.424;2022-11-25T09:08:28;5.70;99.90
8676;DHT22;4375;52.486;13.424;2022-11-25T09:10:56;5.70;99.90
8676;DHT22;4375;52.486;13.424;2022-11-25T09:13:21;5.70;99.90
8676;DHT22;4375;52.486;13.424;2022-11-25T09:15:47;5.80;99.90
8676;DHT22;4375;52.486;13.424;2022-11-25T09:18:13;5.90;99.90
8676;DHT22;4375;52.486;13.424;2022-11-25T09:20:40;5.70;99.90
8676;DHT22;4375;52.486;13.424;2022-11-25T09:23:06;5.70;99.90
8676;DHT22;4375;52.486;13.424;2022-11-25T09:25:33;5.80;99.90
8676;DHT22;4375;52.486;13.424;2022-11-25T09:27:58;5.80;99.90
8676;DHT22;4375;52.486;13.424;2022-11-25T09:30:24;5.90;99.90
8676;DHT22;4375;52.486;13.424;2022-11-25T09:32:54;5.90;99.90
8676;DHT22;4375;52.486;13.424;2022-11-25T09:35:21;5.90;99.90
8676;DHT22;4375;52.486;13.424;2022-11-25T09:37:46;5.90;99.90
8676;DHT22;4375;52.486;13.424;2022-11-25T09:40:24;5.90;99.90
8676;DHT22;4375;52.486;13.424;2022-11-25T09:54:41;6.00;99.90
8676;DHT22;4375;52.486;13.424;2022-11-25T10:00:15;6.40;99.90
8676;DHT22;4375;52.486;13.424;2022-11-25T10:08:34;6.20;99.90
8676;DHT22;4375;52.486;13.424;2022-11-25T10:11:11;6.20;99.90
8676;DHT22;4375;52.486;13.424;2022-11-25T10:13:56;6.20;99.90
8676;DHT22;4375;52.486;13.424;2022-11-25T10:21:29;5.90;99.90
8676;DHT22;4375;52.486;13.424;2022-11-25T10:23:55;5.90;99.90
8676;DHT22;4375;52.486;13.424;2022-11-25T10:26:26;6.00;99.90
8676;DHT22;4375;52.486;13.424;2022-11-25T10:29:24;6.10;99.90
8676;DHT22;4375;52.486;13.424;2022-11-25T10:32:37;6.10;99.90
8676;DHT22;4375;52.486;13.424;2022-11-25T10:34:47;6.20;99.90
8676;DHT22;4375;52.486;13.424;2022-11-25T10:37:30;6.20;99.90
8676;DHT22;4375;52.486;13.424;2022-11-25T10:39:58;6.20;99.90
8676;DHT22;4375;52.486;13.424;2022-11-25T10:42:26;6.30;99.90
8676;DHT22;4375;52.486;13.424;2022-11-25T10:44:52;6.20;99.90
8676;DHT22;4375;52.486;13.424;2022-11-25T10:47:29;6.20;99.90
8676;DHT22;4375;52.486;13.424;2022-11-25T10:50:19;6.30;99.90
8676;DHT22;4375;52.486;13.424;2022-11-25T10:52:56;6.40;99.90
8676;DHT22;4375;52.486;13.424;2022-11-25T10:55:26;6.40;99.90
8676;DHT22;4375;52.486;13.424;2022-11-25T10:57:54;6.30;99.90
8676;DHT22;4375;52.486;13.424;2022-11-25T11:07:20;6.70;99.90
8676;DHT22;4375;52.486;13.424;2022-11-25T11:12:31;6.70;99.90
8676;DHT22;4375;52.486;13.424;2022-11-25T11:15:21;6.70;99.90
8676;DHT22;4375;52.486;13.424;2022-11-25T11:17:47;6.70;99.90
8676;DHT22;4375;52.486;13.424;2022-11-25T11:23:11;6.60;99.90
8676;DHT22;4375;52.486;13.424;2022-11-25T11:25:42;6.50;99.90
8676;DHT22;4375;52.486;13.424;2022-11-25T11:28:42;6.40;99.90
8676;DHT22;4375;52.486;13.424;2022-11-25T11:32:28;6.50;99.90
8676;DHT22;4375;52.486;13.424;2022-11-25T11:48:44;6.70;99.90
8676;DHT22;4375;52.486;13.424;2022-11-25T11:51:32;6.90;99.90
8676;DHT22;4375;52.486;13.424;2022-11-25T11:54:05;6.90;99.90
8676;DHT22;4375;52.486;13.424;2022-11-25T11:56:41;6.90;99.90
8676;DHT22;4375;52.486;13.424;2022-11-25T12:04:44;7.00;99.90
8676;DHT22;4375;52.486;13.424;2022-11-25T12:10:19;6.90;99.90
8676;DHT22;4375;52.486;13.424;2022-11-25T12:26:00;6.70;99.90
8676;DHT22;4375;52.486;13.424;2022-11-25T12:36:27;6.60;99.90
8676;DHT22;4375;52.486;13.424;2022-11-25T12:44:16;6.70;99.90
8676;DHT22;4375;52.486;13.424;2022-11-25T12:46:46;6.60;99.90
8676;DHT22;4375;52.486;13.424;2022-11-25T12:49:19;6.60;99.90
8676;DHT22;4375;52.486;13.424;2022-11-25T12:55:23;6.60;99.90
8676;DHT22;4375;52.486;13.424;2022-11-25T13:21:29;6.70;99.90
8676;DHT22;4375;52.486;13.424;2022-11-25T13:35:53;6.80;99.90
8676;DHT22;4375;52.486;13.424;2022-11-25T13:38:36;6.80;99.90
8676;DHT22;4375;52.486;13.424;2022-11-25T13:46:50;6.90;99.90
8676;DHT22;4375;52.486;13.424;2022-11-25T13:49:24;6.90;99.90
8676;DHT22;4375;52.486;13.424;2022-11-25T13:52:44;6.80;99.90
8676;DHT22;4375;52.486;13.424;2022-11-25T13:54:57;6.80;99.90
8676;DHT22;4375;52.486;13.424;2022-11-25T13:57:48;6.90;99.90
8676;DHT22;4375;52.486;13.424;2022-11-25T14:25:24;6.80;99.90
8676;DHT22;4375;52.486;13.424;2022-11-25T14:28:07;6.70;99.90
8676;DHT22;4375;52.486;13.424;2022-11-25T14:30:41;6.70;99.90
8676;DHT22;4375;52.486;13.424;2022-11-25T14:33:11;6.70;99.90
8676;DHT22;4375;52.486;13.424;2022-11-25T14:35:43;6.70;99.90
8676;DHT22;4375;52.486;13.424;2022-11-25T14:38:25;6.70;99.90
8676;DHT22;4375;52.486;13.424;2022-11-25T14:41:18;6.70;99.90
8676;DHT22;4375;52.486;13.424;2022-11-25T14:43:52;6.60;99.90
8676;DHT22;4375;52.486;13.424;2022-11-25T14:46:22;6.70;99.90
8676;DHT22;4375;52.486;13.424;2022-11-25T14:49:02;6.70;99.90
8676;DHT22;4375;52.486;13.424;2022-11-25T14:51:36;6.70;99.90
8676;DHT22;4375;52.486;13.424;2022-11-25T14:54:07;6.70;99.90
8676;DHT22;4375;52.486;13.424;2022-11-25T14:56:34;6.70;99.90
8676;DHT22;4375;52.486;13.424;2022-11-25T14:59:00;6.70;99.90
8676;DHT22;4375;52.486;13.424;2022-11-25T15:01:30;6.70;99.90
8676;DHT22;4375;52.486;13.424;2022-11-25T15:06:42;6.80;99.90
8676;DHT22;4375;52.486;13.424;2022-11-25T15:09:26;6.80;99.90
8676;DHT22;4375;52.486;13.424;2022-11-25T15:12:09;6.80;99.90
8676;DHT22;4375;52.486;13.424;2022-11-25T15:14:40;6.70;99.90
8676;DHT22;4375;52.486;13.424;2022-11-25T15:17:28;6.80;99.90
8676;DHT22;4375;52.486;13.424;2022-11-25T15:20:29;6.80;99.90
8676;DHT22;4375;52.486;13.424;2022-11-25T15:22:51;6.80;99.90
8676;DHT22;4375;52.486;13.424;2022-11-25T15:25:18;6.80;99.90
8676;DHT22;4375;52.486;13.424;2022-11-25T15:49:36;6.80;99.90
8676;DHT22;4375;52.486;13.424;2022-11-25T15:52:05;6.80;99.90
8676;DHT22;4375;52.486;13.424;2022-11-25T15:54:47;6.90;99.90
8676;DHT22;4375;52.486;13.424;2022-11-25T16:10:25;6.90;99.90
8676;DHT22;4375;52.486;13.424;2022-11-25T16:15:46;6.90;99.90
8676;DHT22;4375;52.486;13.424;2022-11-25T16:18:15;6.80;99.90
8676;DHT22;4375;52.486;13.424;2022-11-25T16:20:52;6.80;99.90
8676;DHT22;4375;52.486;13.424;2022-11-25T16:23:20;6.80;99.90
8676;DHT22;4375;52.486;13.424;2022-11-25T16:25:53;6.90;99.90
8676;DHT22;4375;52.486;13.424;2022-11-25T16:28:21;6.90;99.90
8676;DHT22;4375;52.486;13.424;2022-11-25T16:30:48;6.80;99.90
8676;DHT22;4375;52.486;13.424;2022-11-25T16:33:14;6.90;99.90
8676;DHT22;4375;52.486;13.424;2022-11-25T16:35:40;6.90;99.90
8676;DHT22;4375;52.486;13.424;2022-11-25T16:38:05;6.90;99.90
8676;DHT22;4375;52.486;13.424;2022-11-25T16:40:35;7.00;99.90
8676;DHT22;4375;52.486;13.424;2022-11-25T16:43:01;7.00;99.90
8676;DHT22;4375;52.486;13.424;2022-11-25T16:45:27;7.00;99.90
8676;DHT22;4375;52.486;13.424;2022-11-25T16:47:56;7.10;99.90
8676;DHT22;4375;52.486;13.424;2022-11-25T16:50:24;7.10;99.90
8676;DHT22;4375;52.486;13.424;2022-11-25T16:53:09;7.10;99.90
8676;DHT22;4375;52.486;13.424;2022-11-25T16:55:41;7.10;99.90
8676;DHT22;4375;52.486;13.424;2022-11-25T16:58:19;7.10;99.90
8676;DHT22;4375;52.486;13.424;2022-11-25T17:03:41;7.20;99.90
8676;DHT22;4375;52.486;13.424;2022-11-25T17:06:31;7.10;99.90
8676;DHT22;4375;52.486;13.424;2022-11-25T17:09:07;7.10;99.90
8676;DHT22;4375;52.486;13.424;2022-11-25T17:12:17;7.10;99.90
8676;DHT22;4375;52.486;13.424;2022-11-25T17:15:33;7.20;99.90
8676;DHT22;4375;52.486;13.424;2022-11-25T17:18:05;7.20;99.90
8676;DHT22;4375;52.486;13.424;2022-11-25T17:20:41;7.10;99.90
8676;DHT22;4375;52.486;13.424;2022-11-25T17:23:25;7.10;99.90
8676;DHT22;4375;52.486;13.424;2022-11-25T17:25:51;7.10;99.90
8676;DHT22;4375;52.486;13.424;2022-11-25T17:28:22;7.20;99.90
8676;DHT22;4375;52.486;13.424;2022-11-25T17:30:49;7.20;99.90
8676;DHT22;4375;52.486;13.424;2022-11-25T17:33:17;7.20;99.90
8676;DHT22;4375;52.486;13.424;2022-11-25T17:35:46;7.20;99.90
8676;DHT22;4375;52.486;13.424;2022-11-25T17:38:17;7.20;99.90
8676;DHT22;4375;52.486;13.424;2022-11-25T17:41:14;7.20;99.90
8676;DHT22;4375;52.486;13.424;2022-11-25T17:43:40;7.20;99.90
8676;DHT22;4375;52.486;13.424;2022-11-25T17:46:14;7.10;99.90
8676;DHT22;4375;52.486;13.424;2022-11-25T17:48:50;7.10;99.90
8676;DHT22;4375;52.486;13.424;2022-11-25T17:51:26;7.20;99.90
8676;DHT22;4375;52.486;13.424;2022-11-25T17:53:52;7.10;99.90
8676;DHT22;4375;52.486;13.424;2022-11-25T17:56:32;7.20;99.90
8676;DHT22;4375;52.486;13.424;2022-11-25T17:59:15;7.20;99.90
8676;DHT22;4375;52.486;13.424;2022-11-25T18:01:45;7.20;99.90
8676;DHT22;4375;52.486;13.424;2022-11-25T18:04:31;7.20;99.90
8676;DHT22;4375;52.486;13.424;2022-11-25T18:07:11;7.30;99.90
8676;DHT22;4375;52.486;13.424;2022-11-25T18:09:59;7.20;99.90
8676;DHT22;4375;52.486;13.424;2022-11-25T18:12:29;7.20;99.90
8676;DHT22;4375;52.486;13.424;2022-11-25T18:15:09;7.20;99.90
8676;DHT22;4375;52.486;13.424;2022-11-25T18:17:41;7.20;99.90
8676;DHT22;4375;52.486;13.424;2022-11-25T18:20:31;7.20;99.90
8676;DHT22;4375;52.486;13.424;2022-11-25T18:23:23;7.20;99.90
8676;DHT22;4375;52.486;13.424;2022-11-25T18:25:49;7.20;99.90
8676;DHT22;4375;52.486;13.424;2022-11-25T18:28:18;7.20;99.90
8676;DHT22;4375;52.486;13.424;2022-11-25T18:30:45;7.20;99.90
8676;DHT22;4375;52.486;13.424;2022-11-25T18:33:13;7.20;99.90
8676;DHT22;4375;52.486;13.424;2022-11-25T18:35:39;7.20;99.90
8676;DHT22;4375;52.486;13.424;2022-11-25T18:38:05;7.30;99.90
8676;DHT22;4375;52.486;13.424;2022-11-25T18:40:32;7.30;99.90
8676;DHT22;4375;52.486;13.424;2022-11-25T18:43:02;7.30;99.90
8676;DHT22;4375;52.486;13.424;2022-11-25T18:45:34;7.30;99.90
8676;DHT22;4375;52.486;13.424;2022-11-25T18:48:01;7.30;99.90
8676;DHT22;4375;52.486;13.424;2022-11-25T18:50:27;7.20;99.90
8676;DHT22;4375;52.486;13.424;2022-11-25T18:52:53;7.20;99.90
8676;DHT22;4375;52.486;13.424;2022-11-25T18:55:21;7.30;99.90
8676;DHT22;4375;52.486;13.424;2022-11-25T18:57:48;7.30;99.90
8676;DHT22;4375;52.486;13.424;2022-11-25T19:00:18;7.30;99.90
8676;DHT22;4375;52.486;13.424;2022-11-25T19:02:44;7.30;99.90
8676;DHT22;4375;52.486;13.424;2022-11-25T19:05:21;7.40;99.90
8676;DHT22;4375;52.486;13.424;2022-11-25T19:07:49;7.40;99.90
8676;DHT22;4375;52.486;13.424;2022-11-25T19:10:18;7.30;99.90
8676;DHT22;4375;52.486;13.424;2022-11-25T19:12:46;7.40;99.90
8676;DHT22;4375;52.486;13.424;2022-11-25T19:15:16;7.40;99.90
8676;DHT22;4375;52.486;13.424;2022-11-25T19:17:45;7.30;99.90
8676;DHT22;4375;52.486;13.424;2022-11-25T19:20:18;7.40;99.90
8676;DHT22;4375;52.486;13.424;2022-11-25T19:22:45;7.40;99.90
8676;DHT22;4375;52.486;13.424;2022-11-25T19:25:11;7.40;99.90
8676;DHT22;4375;52.486;13.424;2022-11-25T19:27:43;7.40;99.90
8676;DHT22;4375;52.486;13.424;2022-11-25T19:30:21;7.40;99.90
8676;DHT22;4375;52.486;13.424;2022-11-25T19:32:49;7.30;99.90
8676;DHT22;4375;52.486;13.424;2022-11-25T19:35:18;7.40;99.90
8676;DHT22;4375;52.486;13.424;2022-11-25T19:37:46;7.40;99.90
8676;DHT22;4375;52.486;13.424;2022-11-25T19:40:16;7.50;99.90
8676;DHT22;4375;52.486;13.424;2022-11-25T19:42:43;7.50;99.90
8676;DHT22;4375;52.486;13.424;2022-11-25T19:45:15;7.50;99.90
8676;DHT22;4375;52.486;13.424;2022-11-25T19:47:43;7.50;99.90
8676;DHT22;4375;52.486;13.424;2022-11-25T19:50:18;7.50;99.90
8676;DHT22;4375;52.486;13.424;2022-11-25T19:52:45;7.50;99.90